Portada
METAR-TAF:

METAR-TAF

Aeroports :

Sanya, Xina

latitud: 18-18N, longitud: 109-24E, altitud: 27 m

Observació

L'informe es va fer fa 29 minuts, a les 11:00 UTC
Vent 8 kt del Est
Temperatura 29°C
Humitat 74%
Pressió 1009 hPa
Visibilitat 10 km o més
Escasses núvols a una alçada de 5000 ft

METAR: ZJSY 181100Z 10004MPS 9999 FEW050 29/24 Q1009 NOSIG

Hora: 19:29 (11:29 UTC)

Pronòstic

L'informe es va fer fa 8 hores i 28 minuts, a les 03:01 UTC
Pronòstic vàlid del 18 a les 06 UTC al 19 a les 06 UTC
Vent 8 kt del Est
Visibilitat 10 km o més
Escasses núvols a una alçada de 2000 ft
Temporalment
l' 18 a les 06 UTC al 18 a les 12 UTC
Núvols disperses a una alçada de 1600 ft
Escasses núvols a una alçada de 2500 ft, Cumulonimbus.

TAF: ZJSY 180301Z 1806/1906 09004MPS 9999 FEW020 TX32/1806Z TN25/1821Z TEMPO 1806/1812 SCT016 FEW025CB

Observacions i pronòstics meteorològics de més de 4000 aeroports (METAR i TAF).

Les estacions disponibles són els punts grocs i vermells al mapa.

Posi el ratolí al punt desitjat per veure el nom de l'estació.

Feu clic per veure les observacions i els pronòstics meteorològics.

Per canviar el mapa: feu clic els botons verds amb una creu de color negre per apropar; al botó verd amb un guió per allunyar la imatge; o en les fletxes verdes per a mapes adjacents.


METAR-TAF: